Time;durP1;ratioP1;P1;durP2;ratioP2;P2;SDS_P1;SDS_P2;PMS_P1;PMS_P2;Temp;Humidity;BMP_temperature;BMP_pressure;BME280_temperature;BME280_humidity;BME280_pressure;Samples;Min_cycle;Max_cycle;Signal;HPM_P1;HPM_P2
2020/12/10 00:00:07;;;;;;;19.23;12.13;;;-0.40;98.00;;;;;;5014415;28;20033;-70
2020/12/10 00:02:33;;;;;;;21.75;12.60;;;-0.40;98.00;;;;;;5012746;28;20107;-71
2020/12/10 00:04:59;;;;;;;30.83;12.82;;;-0.30;98.00;;;;;;5009079;28;20029;-70
2020/12/10 00:07:24;;;;;;;18.73;11.80;;;-0.30;98.00;;;;;;5016911;28;20045;-69
2020/12/10 00:09:52;;;;;;;16.60;11.13;;;-0.40;98.00;;;;;;5018823;28;20022;-69
2020/12/10 00:12:21;;;;;;;17.95;11.55;;;-0.40;98.00;;;;;;5014806;28;20427;-70
2020/12/10 00:14:47;;;;;;;17.75;11.77;;;-0.40;98.00;;;;;;5004167;28;20037;-70
2020/12/10 00:17:13;;;;;;;18.15;12.07;;;-0.50;98.00;;;;;;5016425;28;20427;-69
2020/12/10 00:19:39;;;;;;;15.85;11.00;;;-0.40;98.00;;;;;;5017879;28;20062;-71
2020/12/10 00:22:06;;;;;;;16.75;11.25;;;-0.30;98.00;;;;;;5015139;28;20029;-70
2020/12/10 00:24:32;;;;;;;18.45;11.98;;;-0.40;98.00;;;;;;5018086;28;20025;-70
2020/12/10 00:26:58;;;;;;;18.98;12.35;;;-0.50;98.00;;;;;;5016865;28;20045;-69
2020/12/10 00:29:23;;;;;;;18.10;11.50;;;-0.50;98.00;;;;;;5017656;28;20037;-70
2020/12/10 00:31:49;;;;;;;19.98;11.20;;;-0.50;98.00;;;;;;5013067;28;20018;-68
2020/12/10 00:34:14;;;;;;;18.45;12.38;;;-0.50;98.00;;;;;;5016077;28;20026;-70
2020/12/10 00:36:40;;;;;;;17.95;11.57;;;-0.60;98.00;;;;;;5017598;28;20033;-70
2020/12/10 00:39:06;;;;;;;17.35;11.45;;;-0.60;98.00;;;;;;5017197;28;20430;-70
2020/12/10 00:41:32;;;;;;;16.20;10.55;;;-0.70;98.00;;;;;;5014613;28;20120;-69
2020/12/10 00:44:02;;;;;;;18.13;11.45;;;-0.60;98.00;;;;;;5017236;28;20374;-70
2020/12/10 00:46:28;;;;;;;17.98;11.00;;;-0.60;98.00;;;;;;5014525;28;20033;-69
2020/12/10 00:48:54;;;;;;;17.20;12.25;;;-0.50;98.00;;;;;;5016751;28;20045;-70
2020/12/10 00:51:19;;;;;;;22.27;12.10;;;-0.60;98.00;;;;;;5017630;28;20029;-69
2020/12/10 00:53:45;;;;;;;17.70;11.38;;;-0.60;98.00;;;;;;5016549;28;20415;-70
2020/12/10 00:56:10;;;;;;;17.13;11.70;;;-0.70;98.00;;;;;;5015725;28;20083;-70
2020/12/10 00:58:36;;;;;;;21.70;12.93;;;-0.70;98.00;;;;;;5016739;28;20033;-69
2020/12/10 01:01:02;;;;;;;18.25;11.88;;;-0.70;98.00;;;;;;5015552;28;20141;-70
2020/12/10 01:03:27;;;;;;;18.63;11.65;;;-0.70;98.00;;;;;;5017899;28;20083;-70
2020/12/10 01:05:53;;;;;;;19.75;12.07;;;-0.60;98.00;;;;;;5017443;28;20512;-69
2020/12/10 01:08:19;;;;;;;20.92;12.60;;;-0.60;98.00;;;;;;5014965;28;20079;-69
2020/12/10 01:10:44;;;;;;;20.15;12.63;;;-0.60;98.00;;;;;;5017410;28;20148;-69
2020/12/10 01:13:10;;;;;;;21.30;12.98;;;-0.60;98.00;;;;;;5016571;28;20105;-71
2020/12/10 01:15:36;;;;;;;20.35;13.07;;;-0.60;98.00;;;;;;5014930;28;20065;-69
2020/12/10 01:18:02;;;;;;;23.23;13.10;;;-0.60;98.00;;;;;;5013163;28;20057;-69
2020/12/10 01:20:28;;;;;;;19.15;12.07;;;-0.60;98.00;;;;;;5017077;28;20041;-69
2020/12/10 01:22:53;;;;;;;17.30;11.82;;;-0.60;98.00;;;;;;5017338;28;20331;-70
2020/12/10 01:25:19;;;;;;;18.58;12.25;;;-0.50;98.00;;;;;;5015596;28;20394;-69
2020/12/10 01:27:47;;;;;;;21.70;13.23;;;-0.50;98.00;;;;;;5016454;28;20084;-70
2020/12/10 01:30:13;;;;;;;18.33;12.65;;;-0.50;98.00;;;;;;4999539;28;20022;-70
2020/12/10 01:32:38;;;;;;;21.25;12.27;;;-0.60;98.00;;;;;;5014419;28;20041;-69
2020/12/10 01:35:04;;;;;;;19.83;12.30;;;-0.60;98.00;;;;;;5017039;28;20057;-69
2020/12/10 01:37:30;;;;;;;21.95;12.93;;;-0.60;98.00;;;;;;5016540;28;20069;-70
2020/12/10 01:39:56;;;;;;;24.27;13.13;;;-0.60;98.00;;;;;;5014758;28;20359;-70
2020/12/10 01:42:21;;;;;;;19.48;12.30;;;-0.60;98.00;;;;;;5014976;28;20100;-69
2020/12/10 01:44:48;;;;;;;21.30;14.07;;;-0.60;98.00;;;;;;5016841;28;20029;-70
2020/12/10 01:47:13;;;;;;;22.45;14.57;;;-0.50;98.00;;;;;;5014428;28;21429;-69
2020/12/10 01:49:39;;;;;;;20.77;13.50;;;-0.40;98.00;;;;;;5009379;28;20109;-70
2020/12/10 01:52:06;;;;;;;18.70;12.32;;;-0.40;98.00;;;;;;5016175;28;20033;-70
2020/12/10 01:54:35;;;;;;;20.38;12.05;;;-0.50;98.00;;;;;;5016420;28;20049;-69
2020/12/10 01:57:02;;;;;;;17.48;11.45;;;-0.50;98.00;;;;;;5016630;28;20030;-69
2020/12/10 01:59:28;;;;;;;18.83;12.55;;;-0.40;98.00;;;;;;5015473;28;20030;-69
2020/12/10 02:01:53;;;;;;;22.25;13.30;;;-0.40;98.00;;;;;;5014923;28;20312;-70
2020/12/10 02:04:33;;;;;;;19.75;12.70;;;-0.40;98.00;;;;;;5015932;28;20034;-69
2020/12/10 02:06:59;;;;;;;19.25;12.65;;;-0.40;98.00;;;;;;5015760;28;20433;-70
2020/12/10 02:09:25;;;;;;;21.73;12.93;;;-0.30;98.00;;;;;;5006684;28;20600;-70
2020/12/10 02:11:52;;;;;;;16.70;11.15;;;-0.40;98.00;;;;;;5009725;28;20024;-69
2020/12/10 02:14:18;;;;;;;18.35;11.80;;;-0.40;98.00;;;;;;5006692;28;20121;-68
2020/12/10 02:16:44;;;;;;;21.08;12.57;;;-0.50;98.00;;;;;;5011662;28;20032;-69
2020/12/10 02:19:10;;;;;;;22.02;13.30;;;-0.50;98.00;;;;;;5011957;28;20625;-69
2020/12/10 02:21:36;;;;;;;20.05;12.30;;;-0.40;98.00;;;;;;5002186;28;20084;-69
2020/12/10 02:24:02;;;;;;;20.35;12.68;;;-0.40;98.00;;;;;;5008893;28;20118;-71
2020/12/10 02:26:27;;;;;;;19.65;12.50;;;-0.40;98.00;;;;;;5016167;28;20054;-69
2020/12/10 02:28:59;;;;;;;20.23;11.43;;;-0.40;98.00;;;;;;5014405;28;20375;-69
2020/12/10 02:31:26;;;;;;;20.40;12.75;;;-0.40;98.00;;;;;;5014651;28;20101;-70
2020/12/10 02:33:56;;;;;;;23.25;14.10;;;-0.40;98.00;;;;;;5014171;28;20373;-69
2020/12/10 02:36:22;;;;;;;17.77;12.05;;;-0.40;98.00;;;;;;5015630;28;20049;-69
2020/12/10 02:38:50;;;;;;;19.50;12.38;;;-0.40;98.00;;;;;;5014983;28;20068;-68
2020/12/10 02:41:16;;;;;;;20.23;13.15;;;-0.30;98.00;;;;;;5015843;28;20108;-69
2020/12/10 02:43:42;;;;;;;20.85;13.18;;;-0.30;98.00;;;;;;5015438;28;20097;-69
2020/12/10 02:46:10;;;;;;;19.92;13.18;;;-0.30;98.00;;;;;;5014335;28;20033;-69
2020/12/10 02:48:35;;;;;;;21.95;13.70;;;-0.30;98.00;;;;;;5012570;28;20045;-68
2020/12/10 02:51:02;;;;;;;19.38;13.25;;;-0.40;98.00;;;;;;5015513;28;20026;-68
2020/12/10 02:53:28;;;;;;;18.83;12.88;;;-0.40;98.00;;;;;;5012298;28;20044;-70
2020/12/10 02:55:55;;;;;;;21.60;13.75;;;-0.40;98.00;;;;;;5015746;28;20038;-70
2020/12/10 02:58:22;;;;;;;20.08;12.73;;;-0.40;98.00;;;;;;5011608;28;20061;-69
2020/12/10 03:00:47;;;;;;;20.05;12.68;;;-0.40;98.00;;;;;;5010359;28;20308;-70
2020/12/10 03:03:13;;;;;;;25.13;14.20;;;-0.40;98.00;;;;;;5015189;28;20033;-69
2020/12/10 03:05:39;;;;;;;21.33;12.55;;;-0.40;98.00;;;;;;5011935;28;20069;-72
2020/12/10 03:08:04;;;;;;;23.98;14.07;;;-0.40;98.00;;;;;;5003312;28;20328;-69
2020/12/10 03:10:31;;;;;;;23.30;15.05;;;-0.40;98.00;;;;;;5012448;28;20338;-70
2020/12/10 03:12:56;;;;;;;23.52;15.15;;;-0.40;98.00;;;;;;5015362;28;20026;-69
2020/12/10 03:15:22;;;;;;;23.42;14.73;;;-0.40;98.00;;;;;;5013483;28;20060;-69
2020/12/10 03:17:48;;;;;;;19.80;13.38;;;-0.40;98.00;;;;;;5013721;28;20096;-70
2020/12/10 03:20:13;;;;;;;24.33;14.80;;;-0.40;98.00;;;;;;5015265;28;20115;-69
2020/12/10 03:22:39;;;;;;;20.17;13.93;;;-0.40;98.00;;;;;;5014820;28;20041;-70
2020/12/10 03:25:05;;;;;;;21.45;14.40;;;-0.40;98.00;;;;;;5015168;28;20034;-69
2020/12/10 03:27:30;;;;;;;21.60;14.85;;;-0.40;98.00;;;;;;5002560;28;20027;-70
2020/12/10 03:29:56;;;;;;;22.33;14.90;;;-0.40;98.00;;;;;;5011632;28;20100;-70
2020/12/10 03:32:22;;;;;;;21.58;14.50;;;-0.40;98.00;;;;;;5013829;28;20319;-69
2020/12/10 03:34:47;;;;;;;22.23;14.70;;;-0.40;98.00;;;;;;5008889;28;20467;-69
2020/12/10 03:37:13;;;;;;;23.20;14.65;;;-0.40;98.00;;;;;;5007330;28;20030;-69
2020/12/10 03:39:41;;;;;;;22.00;14.40;;;-0.40;98.00;;;;;;5013241;28;20063;-69
2020/12/10 03:42:06;;;;;;;25.48;15.70;;;-0.50;98.00;;;;;;5014820;28;20034;-69
2020/12/10 03:44:35;;;;;;;22.92;14.20;;;-0.50;98.00;;;;;;5014158;28;20056;-69
2020/12/10 03:47:01;;;;;;;25.55;14.93;;;-0.50;98.00;;;;;;5013047;28;20118;-70
2020/12/10 03:49:26;;;;;;;22.15;15.25;;;-0.50;98.00;;;;;;5014897;28;20100;-70
2020/12/10 03:51:52;;;;;;;19.38;13.23;;;-0.60;98.00;;;;;;5014457;28;20026;-70
2020/12/10 03:54:18;;;;;;;23.83;14.90;;;-0.60;98.00;;;;;;5014628;28;20087;-70
2020/12/10 03:56:43;;;;;;;30.92;16.70;;;-0.60;98.00;;;;;;5014076;28;20076;-69
2020/12/10 03:59:09;;;;;;;24.83;15.27;;;-0.60;98.00;;;;;;5016180;28;20038;-70
2020/12/10 04:01:35;;;;;;;141.65;72.70;;;-0.60;98.00;;;;;;5009424;28;20034;-70
2020/12/10 04:04:01;;;;;;;100.00;50.00;;;-0.60;98.00;;;;;;5010334;28;20099;-70
2020/12/10 04:06:30;;;;;;;58.53;33.63;;;-0.60;98.00;;;;;;5013242;28;20018;-70
2020/12/10 04:08:55;;;;;;;37.40;22.55;;;-0.60;98.00;;;;;;5014948;28;20026;-69
2020/12/10 04:11:22;;;;;;;47.65;27.35;;;-0.50;98.00;;;;;;5014564;28;20026;-69
2020/12/10 04:13:48;;;;;;;208.48;135.43;;;-0.50;98.00;;;;;;5014815;28;20423;-69
2020/12/10 04:16:16;;;;;;;77.25;52.05;;;-0.60;98.00;;;;;;5013211;28;20045;-71
2020/12/10 04:18:42;;;;;;;72.55;47.67;;;-0.60;98.00;;;;;;5003540;28;20037;-69
2020/12/10 04:21:10;;;;;;;60.83;39.88;;;-0.60;98.00;;;;;;5014915;28;20022;-70
2020/12/10 04:23:35;;;;;;;34.40;23.05;;;-0.60;98.00;;;;;;5014869;28;20022;-69
2020/12/10 04:26:01;;;;;;;29.77;19.48;;;-0.50;98.00;;;;;;5014736;28;20029;-69
2020/12/10 04:28:27;;;;;;;38.38;28.23;;;-0.50;98.00;;;;;;5005336;28;20026;-70
2020/12/10 04:30:53;;;;;;;81.85;48.33;;;-0.50;98.00;;;;;;5012902;28;20057;-69
2020/12/10 04:33:18;;;;;;;150.77;92.47;;;-0.60;98.00;;;;;;4995292;28;20030;-69
2020/12/10 04:35:44;;;;;;;58.25;36.13;;;-0.60;98.00;;;;;;5010772;28;20501;-70
2020/12/10 04:38:13;;;;;;;30.48;19.42;;;-0.60;98.00;;;;;;5013865;28;20481;-69
2020/12/10 04:40:39;;;;;;;30.30;21.08;;;-0.50;98.00;;;;;;5014415;28;20326;-70
2020/12/10 04:43:08;;;;;;;25.73;15.52;;;-0.50;98.00;;;;;;5013902;28;20088;-69
2020/12/10 04:45:33;;;;;;;27.35;17.38;;;-0.40;98.00;;;;;;5007310;28;20106;-70
2020/12/10 04:48:00;;;;;;;27.75;18.48;;;-0.30;98.00;;;;;;5011053;28;20137;-69
2020/12/10 04:50:28;;;;;;;28.27;16.65;;;-0.40;98.00;;;;;;5013295;28;20457;-70
2020/12/10 04:52:54;;;;;;;24.27;16.50;;;-0.40;98.00;;;;;;5009603;28;20029;-70
2020/12/10 04:55:20;;;;;;;30.70;18.77;;;-0.40;98.00;;;;;;4998710;28;20121;-69
2020/12/10 04:57:47;;;;;;;27.35;17.35;;;-0.40;98.00;;;;;;5016410;28;20114;-70
2020/12/10 05:00:15;;;;;;;25.52;15.95;;;-0.50;98.00;;;;;;5017468;28;20033;-70
2020/12/10 05:02:45;;;;;;;24.85;17.20;;;-0.50;98.00;;;;;;5014339;28;20025;-70
2020/12/10 05:05:28;;;;;;;24.83;16.58;;;-0.40;98.00;;;;;;5014186;28;20030;-70
2020/12/10 05:07:56;;;;;;;25.13;17.13;;;-0.50;98.00;;;;;;5008982;28;20449;-69
2020/12/10 05:10:22;;;;;;;29.48;18.25;;;-0.50;98.00;;;;;;5015003;28;20067;-70
2020/12/10 05:12:52;;;;;;;32.42;19.30;;;-0.50;98.00;;;;;;5015238;28;20030;-69
2020/12/10 05:15:31;;;;;;;29.40;18.23;;;-0.50;98.00;;;;;;5012738;28;20030;-70
2020/12/10 05:18:07;;;;;;;85.22;52.05;;;-0.40;98.00;;;;;;5014789;28;20026;-70
2020/12/10 05:20:45;;;;;;;49.55;30.15;;;-0.40;98.00;;;;;;5016901;28;20021;-70
2020/12/10 05:23:13;;;;;;;23.85;15.70;;;-0.40;98.00;;;;;;5015519;28;20030;-69
2020/12/10 05:25:51;;;;;;;21.50;15.27;;;-0.50;98.00;;;;;;5018162;28;20424;-69
2020/12/10 05:28:21;;;;;;;24.50;15.95;;;-0.50;98.00;;;;;;5021125;28;20125;-69
2020/12/10 05:31:05;;;;;;;26.33;15.23;;;-0.50;98.00;;;;;;5013574;28;20045;-69
2020/12/10 05:33:33;;;;;;;20.67;14.10;;;-0.50;98.00;;;;;;5015277;28;20021;-69
2020/12/10 05:36:12;;;;;;;23.88;15.10;;;-0.50;98.00;;;;;;5014732;28;20038;-70
2020/12/10 05:39:04;;;;;;;21.02;14.32;;;-0.60;98.00;;;;;;5015888;28;20028;-70
2020/12/10 05:41:45;;;;;;;23.08;14.20;;;-0.60;98.00;;;;;;5011752;28;20029;-69
2020/12/10 05:44:13;;;;;;;23.48;14.02;;;-0.60;98.00;;;;;;5013697;28;20430;-70
2020/12/10 05:46:39;;;;;;;19.55;13.23;;;-0.50;98.00;;;;;;5008514;28;20101;-69
2020/12/10 05:49:08;;;;;;;17.98;12.55;;;-0.50;98.00;;;;;;5008506;28;20042;-69
2020/12/10 05:51:42;;;;;;;17.48;13.20;;;-0.50;98.00;;;;;;4997677;28;20022;-70
2020/12/10 05:54:10;;;;;;;17.08;12.90;;;-0.50;98.00;;;;;;5008318;28;20084;-69
2020/12/10 05:56:56;;;;;;;13.32;10.30;;;-0.40;98.00;;;;;;5017179;28;20033;-70
2020/12/10 05:59:27;;;;;;;16.52;11.45;;;-0.50;98.00;;;;;;5016670;28;20033;-70
2020/12/10 06:02:02;;;;;;;17.42;11.75;;;-0.50;98.00;;;;;;5015386;28;20040;-70
2020/12/10 06:04:29;;;;;;;20.17;11.57;;;-0.50;98.00;;;;;;5013907;28;20422;-69
2020/12/10 06:06:57;;;;;;;17.88;11.68;;;-0.50;98.00;;;;;;5011442;28;20021;-69
2020/12/10 06:09:24;;;;;;;21.70;12.80;;;-0.50;98.00;;;;;;5010558;28;20045;-70
2020/12/10 06:11:59;;;;;;;20.45;13.93;;;-0.50;98.00;;;;;;5014623;28;20018;-69
2020/12/10 06:14:28;;;;;;;28.05;15.40;;;-0.50;98.00;;;;;;5000715;28;20107;-70
2020/12/10 06:17:10;;;;;;;27.65;17.30;;;-0.60;98.00;;;;;;5009604;28;20033;-70
2020/12/10 06:19:37;;;;;;;20.92;15.27;;;-0.60;98.00;;;;;;5015854;28;20100;-69
2020/12/10 06:22:35;;;;;;;26.83;16.20;;;-0.60;98.00;;;;;;5016237;28;20053;-69
2020/12/10 06:25:26;;;;;;;30.17;16.63;;;-0.60;98.00;;;;;;5016651;28;20026;-70
2020/12/10 06:27:51;;;;;;;26.08;16.90;;;-0.60;98.00;;;;;;4996882;28;20031;-70
2020/12/10 06:30:20;;;;;;;27.60;17.67;;;-0.60;98.00;;;;;;5001394;28;20037;-70
2020/12/10 06:32:52;;;;;;;21.80;14.85;;;-0.60;98.00;;;;;;5014895;28;20391;-70
2020/12/10 06:35:29;;;;;;;24.17;14.98;;;-0.60;98.00;;;;;;5016591;28;20041;-69
2020/12/10 06:37:56;;;;;;;20.58;14.45;;;-0.70;98.00;;;;;;4996801;28;20103;-69
2020/12/10 06:40:32;;;;;;;19.85;13.30;;;-0.70;98.00;;;;;;4999087;28;20653;-69
2020/12/10 06:43:00;;;;;;;22.60;13.35;;;-0.70;98.00;;;;;;5015858;28;20042;-69
2020/12/10 06:45:34;;;;;;;22.08;14.02;;;-0.70;98.00;;;;;;5015691;28;20022;-69
2020/12/10 06:48:02;;;;;;;22.42;14.40;;;-0.60;98.00;;;;;;5007663;28;20050;-68
2020/12/10 06:50:39;;;;;;;24.58;15.00;;;-0.60;98.00;;;;;;4998595;28;20652;-68
2020/12/10 06:53:22;;;;;;;24.55;14.95;;;-0.60;98.00;;;;;;5015958;28;20014;-70
2020/12/10 06:56:10;;;;;;;20.75;14.18;;;-0.60;98.00;;;;;;5015979;28;20033;-70
2020/12/10 06:58:36;;;;;;;21.73;14.45;;;-0.50;98.00;;;;;;5003773;28;20430;-70
2020/12/10 07:01:31;;;;;;;24.65;14.38;;;-0.50;98.00;;;;;;5014959;28;20034;-70
2020/12/10 07:04:30;;;;;;;19.02;12.57;;;-0.50;98.00;;;;;;5014606;28;20030;-71
2020/12/10 07:07:15;;;;;;;18.30;12.93;;;-0.50;98.00;;;;;;5015977;28;20041;-69
2020/12/10 07:09:57;;;;;;;19.33;12.00;;;-0.50;98.00;;;;;;5015407;28;20315;-69
2020/12/10 07:12:25;;;;;;;21.08;13.00;;;-0.50;98.00;;;;;;5015444;28;20157;-70
2020/12/10 07:14:51;;;;;;;14.35;9.45;;;-0.50;98.00;;;;;;5014075;28;20030;-69
2020/12/10 07:17:18;;;;;;;13.32;8.88;;;-0.40;98.00;;;;;;5014334;28;20030;-69
2020/12/10 07:19:44;;;;;;;11.52;8.32;;;-0.40;98.00;;;;;;5015243;28;20378;-69
2020/12/10 07:22:10;;;;;;;11.95;8.40;;;-0.50;98.00;;;;;;5014815;28;20033;-70
2020/12/10 07:24:36;;;;;;;13.90;9.80;;;-0.50;98.00;;;;;;5015243;28;20330;-70
2020/12/10 07:27:01;;;;;;;12.77;7.10;;;-0.60;98.00;;;;;;5015606;28;20080;-69
2020/12/10 07:29:27;;;;;;;12.52;8.45;;;-0.50;98.00;;;;;;5007510;28;20027;-69
2020/12/10 07:31:53;;;;;;;13.88;9.43;;;-0.50;98.00;;;;;;5004301;28;20056;-69
2020/12/10 07:34:19;;;;;;;12.52;8.30;;;-0.50;98.00;;;;;;5014104;28;20045;-70
2020/12/10 07:36:50;;;;;;;14.68;9.65;;;-0.50;98.00;;;;;;5015426;28;20029;-70
2020/12/10 07:39:32;;;;;;;12.68;8.68;;;-0.40;98.00;;;;;;5014220;28;20060;-71
2020/12/10 07:41:58;;;;;;;12.95;8.50;;;-0.30;98.00;;;;;;5015473;28;20033;-70
2020/12/10 07:44:29;;;;;;;13.85;8.68;;;-0.20;98.00;;;;;;5013652;28;20422;-69
2020/12/10 07:46:55;;;;;;;18.42;11.70;;;-0.20;98.00;;;;;;5013603;28;20081;-70
2020/12/10 07:49:40;;;;;;;15.20;10.65;;;-0.20;98.00;;;;;;5013431;28;20121;-71
2020/12/10 07:52:06;;;;;;;14.65;9.85;;;-0.20;98.00;;;;;;4995652;28;20034;-71
2020/12/10 07:54:45;;;;;;;15.13;10.40;;;-0.20;98.00;;;;;;5011761;28;20432;-70
2020/12/10 07:57:36;;;;;;;14.93;10.82;;;-0.20;98.00;;;;;;5015402;28;20083;-71
2020/12/10 08:00:16;;;;;;;18.73;12.20;;;-0.10;98.00;;;;;;5015332;28;20088;-70
2020/12/10 08:02:56;;;;;;;14.30;10.02;;;0.00;98.00;;;;;;5013253;28;20325;-71
2020/12/10 08:05:25;;;;;;;15.27;9.80;;;0.10;98.00;;;;;;5014815;28;20037;-71
2020/12/10 08:07:53;;;;;;;17.20;10.98;;;0.10;98.00;;;;;;5015043;28;20077;-70
2020/12/10 08:10:21;;;;;;;28.85;15.85;;;0.00;98.00;;;;;;5015148;28;20091;-70
2020/12/10 08:13:09;;;;;;;34.65;16.70;;;-0.10;98.00;;;;;;5014813;28;20034;-71
2020/12/10 08:15:35;;;;;;;23.15;14.18;;;0.00;98.00;;;;;;5014229;28;20034;-70
2020/12/10 08:18:07;;;;;;;18.65;12.77;;;0.00;98.00;;;;;;5016559;28;20052;-70
2020/12/10 08:20:45;;;;;;;19.60;13.18;;;0.00;98.00;;;;;;5034603;28;20045;-70
2020/12/10 08:23:14;;;;;;;14.95;10.55;;;0.00;98.00;;;;;;4995569;28;20029;-71
2020/12/10 08:25:42;;;;;;;18.35;12.10;;;0.10;98.00;;;;;;5012232;28;20415;-70
2020/12/10 08:28:10;;;;;;;16.33;11.20;;;0.20;98.00;;;;;;5017326;28;20022;-70
2020/12/10 08:30:48;;;;;;;14.95;9.85;;;0.30;98.00;;;;;;5016930;28;20044;-70
2020/12/10 08:33:14;;;;;;;20.13;9.93;;;0.30;98.00;;;;;;5012410;28;20468;-71
2020/12/10 08:35:44;;;;;;;13.98;9.40;;;0.30;98.00;;;;;;5018569;28;20125;-71
2020/12/10 08:38:11;;;;;;;13.93;9.05;;;0.30;98.00;;;;;;5005843;28;20044;-70
2020/12/10 08:40:40;;;;;;;13.55;9.60;;;0.30;98.00;;;;;;4998901;28;20026;-70
2020/12/10 08:43:15;;;;;;;15.52;9.85;;;0.50;98.00;;;;;;5007707;28;20034;-71
2020/12/10 08:45:44;;;;;;;20.17;12.50;;;0.60;98.00;;;;;;5017086;28;20416;-70
2020/12/10 08:48:11;;;;;;;14.27;9.30;;;0.60;98.00;;;;;;5018026;28;20046;-71
2020/12/10 08:50:52;;;;;;;18.67;10.65;;;0.50;98.00;;;;;;5018194;28;20018;-72
2020/12/10 08:53:18;;;;;;;14.02;9.20;;;0.50;98.00;;;;;;5017041;28;20112;-70
2020/12/10 08:55:48;;;;;;;24.13;12.85;;;0.60;98.00;;;;;;5017924;28;20055;-71
2020/12/10 08:58:16;;;;;;;21.73;10.68;;;0.60;98.00;;;;;;5017806;28;20030;-70
2020/12/10 09:00:42;;;;;;;24.50;14.90;;;0.70;98.00;;;;;;5015959;28;20033;-70
2020/12/10 09:03:08;;;;;;;17.55;10.88;;;0.80;98.00;;;;;;5018237;28;20034;-70
2020/12/10 09:05:34;;;;;;;12.93;8.57;;;1.00;98.00;;;;;;5018069;28;20022;-70
2020/12/10 09:08:03;;;;;;;13.80;8.23;;;1.10;98.00;;;;;;5003803;28;20426;-70
2020/12/10 09:10:29;;;;;;;14.77;9.32;;;1.10;98.00;;;;;;5018194;28;20384;-70
2020/12/10 09:13:00;;;;;;;13.10;9.15;;;1.00;98.00;;;;;;5017670;28;20056;-71
2020/12/10 09:15:28;;;;;;;14.85;9.82;;;1.00;98.00;;;;;;5006571;28;20088;-71
2020/12/10 09:17:57;;;;;;;16.55;11.18;;;1.00;98.00;;;;;;5000326;28;20092;-71
2020/12/10 09:20:23;;;;;;;15.55;9.77;;;1.00;98.00;;;;;;5017287;28;20461;-70
2020/12/10 09:22:49;;;;;;;15.95;9.38;;;1.10;98.00;;;;;;5016614;28;20124;-70
2020/12/10 09:25:15;;;;;;;14.75;9.20;;;1.00;98.00;;;;;;5017164;28;20121;-70
2020/12/10 09:27:41;;;;;;;12.40;8.57;;;1.10;98.00;;;;;;5017640;28;20048;-70
2020/12/10 09:30:08;;;;;;;10.90;7.55;;;1.20;98.00;;;;;;5017569;28;20030;-70
2020/12/10 09:32:35;;;;;;;13.93;9.63;;;1.10;98.00;;;;;;5014977;28;20034;-71
2020/12/10 09:35:08;;;;;;;15.93;9.10;;;1.10;98.00;;;;;;5015913;28;20054;-70
2020/12/10 09:37:35;;;;;;;15.02;8.45;;;1.10;98.00;;;;;;5013465;28;20038;-70
2020/12/10 09:40:01;;;;;;;12.10;7.78;;;1.20;98.00;;;;;;5017296;28;20030;-69
2020/12/10 09:42:28;;;;;;;13.43;8.35;;;1.10;98.00;;;;;;5017026;28;20076;-69
2020/12/10 09:44:53;;;;;;;12.30;8.10;;;1.10;98.00;;;;;;5017476;28;20374;-69
2020/12/10 09:47:25;;;;;;;12.15;7.93;;;1.20;98.00;;;;;;5016401;28;20089;-71
2020/12/10 09:49:51;;;;;;;13.05;8.52;;;1.20;98.00;;;;;;5017353;28;20030;-71
2020/12/10 09:52:17;;;;;;;12.45;8.45;;;1.20;98.00;;;;;;5015587;28;20026;-70
2020/12/10 09:57:30;;;;;;;11.65;7.97;;;1.20;98.00;;;;;;5017016;28;20085;-71
2020/12/10 10:00:00;;;;;;;12.32;8.57;;;1.20;98.00;;;;;;5016303;28;20326;-71
2020/12/10 10:02:26;;;;;;;10.20;7.55;;;1.20;98.00;;;;;;5015667;28;20054;-71
2020/12/10 10:04:53;;;;;;;13.05;8.00;;;1.30;98.00;;;;;;5014731;28;20037;-70
2020/12/10 10:07:19;;;;;;;13.05;8.77;;;1.30;98.00;;;;;;5016728;28;20026;-71
2020/12/10 10:09:46;;;;;;;17.10;10.10;;;1.40;98.00;;;;;;5016945;28;20025;-70
2020/12/10 10:12:12;;;;;;;18.00;9.65;;;1.20;98.00;;;;;;5015483;28;20034;-70
2020/12/10 10:14:38;;;;;;;12.63;8.90;;;1.10;98.00;;;;;;5013403;28;20026;-70
2020/12/10 10:17:05;;;;;;;12.07;7.57;;;1.00;98.00;;;;;;5015207;28;20424;-69
2020/12/10 10:19:31;;;;;;;14.10;8.23;;;1.00;98.00;;;;;;5014662;28;20037;-70
2020/12/10 10:22:00;;;;;;;11.90;8.32;;;1.20;98.00;;;;;;5016316;28;20041;-70
2020/12/10 10:24:25;;;;;;;12.30;8.20;;;1.40;98.00;;;;;;5016407;28;20323;-69
2020/12/10 10:26:51;;;;;;;11.95;8.40;;;1.40;98.00;;;;;;5015406;28;20030;-70
2020/12/10 10:29:20;;;;;;;14.55;10.13;;;1.30;98.00;;;;;;5016560;28;20033;-70
2020/12/10 10:31:47;;;;;;;21.10;9.27;;;1.30;98.00;;;;;;5015086;28;20025;-70
2020/12/10 10:34:13;;;;;;;14.13;9.75;;;1.20;98.00;;;;;;5016467;28;20026;-70
2020/12/10 10:36:39;;;;;;;18.75;10.68;;;1.20;98.00;;;;;;5015995;28;20034;-69
2020/12/10 10:39:04;;;;;;;15.63;10.10;;;1.30;98.00;;;;;;5015409;28;20121;-69
2020/12/10 10:41:30;;;;;;;16.52;11.63;;;1.20;98.00;;;;;;5016093;28;20039;-70
2020/12/10 10:43:55;;;;;;;18.80;12.32;;;1.10;98.00;;;;;;5015269;28;20044;-70
2020/12/10 10:46:21;;;;;;;18.33;11.23;;;1.10;98.00;;;;;;5014246;28;20466;-70
2020/12/10 10:48:47;;;;;;;22.98;13.63;;;1.10;98.00;;;;;;5015532;28;20117;-70
2020/12/10 10:51:13;;;;;;;19.38;11.70;;;1.20;98.00;;;;;;5014416;28;20018;-69
2020/12/10 10:53:39;;;;;;;18.98;12.48;;;1.20;98.00;;;;;;5015590;28;20040;-70
2020/12/10 10:56:05;;;;;;;21.33;13.52;;;1.10;98.00;;;;;;5016043;28;20030;-70
2020/12/10 10:58:31;;;;;;;21.02;14.70;;;1.00;98.00;;;;;;5016100;28;20101;-69
2020/12/10 11:00:57;;;;;;;19.90;13.07;;;1.10;98.00;;;;;;5013796;28;20683;-69
2020/12/10 11:03:22;;;;;;;22.15;14.20;;;1.20;98.00;;;;;;5015110;28;20729;-69
2020/12/10 11:05:48;;;;;;;24.15;15.23;;;1.10;98.00;;;;;;5015878;28;20395;-69
2020/12/10 11:08:14;;;;;;;22.65;14.30;;;1.10;98.00;;;;;;5015541;28;20026;-70
2020/12/10 11:10:39;;;;;;;21.80;13.38;;;1.00;98.00;;;;;;5015808;28;20014;-70
2020/12/10 11:13:05;;;;;;;22.73;14.18;;;1.10;98.00;;;;;;5015578;28;20101;-70
2020/12/10 11:15:31;;;;;;;23.35;15.13;;;1.10;98.00;;;;;;5014963;28;20030;-71
2020/12/10 11:17:57;;;;;;;21.67;14.05;;;1.20;98.00;;;;;;5014458;28;20048;-70
2020/12/10 11:20:23;;;;;;;22.35;13.98;;;1.20;98.00;;;;;;5015137;28;20037;-71
2020/12/10 11:22:49;;;;;;;21.90;14.20;;;1.20;98.00;;;;;;5007985;28;20022;-70
2020/12/10 11:25:14;;;;;;;22.13;14.63;;;1.10;98.00;;;;;;5013577;28;20034;-70
2020/12/10 11:27:40;;;;;;;27.05;15.15;;;1.00;98.00;;;;;;5015864;28;20028;-70
2020/12/10 11:30:06;;;;;;;23.17;14.75;;;0.90;98.00;;;;;;5015364;28;20088;-70
2020/12/10 11:32:34;;;;;;;22.27;13.98;;;0.80;98.00;;;;;;5014237;28;20484;-70
2020/12/10 11:35:00;;;;;;;26.58;15.65;;;0.70;98.00;;;;;;5015386;28;20430;-70
2020/12/10 11:37:25;;;;;;;23.45;14.75;;;0.70;98.00;;;;;;5015467;28;20030;-70
2020/12/10 11:39:54;;;;;;;22.27;14.57;;;0.70;98.00;;;;;;5015320;28;20357;-70
2020/12/10 11:42:21;;;;;;;21.23;14.50;;;0.80;98.00;;;;;;4999061;28;20030;-70
2020/12/10 11:44:50;;;;;;;23.25;15.02;;;0.80;98.00;;;;;;5007034;28;20362;-69
2020/12/10 11:47:15;;;;;;;27.90;14.50;;;0.80;98.00;;;;;;5012504;28;20434;-70
2020/12/10 11:49:41;;;;;;;22.63;14.98;;;0.70;98.00;;;;;;5013253;28;20028;-70
2020/12/10 11:52:07;;;;;;;23.02;14.98;;;0.60;98.00;;;;;;5015404;28;20026;-71
2020/12/10 11:54:32;;;;;;;22.45;14.75;;;0.60;98.00;;;;;;5014930;28;20038;-70
2020/12/10 11:57:00;;;;;;;22.80;14.35;;;0.60;98.00;;;;;;5015411;28;20026;-71
2020/12/10 11:59:26;;;;;;;24.23;14.38;;;0.70;98.00;;;;;;5013727;28;20032;-71
2020/12/10 12:01:54;;;;;;;19.77;12.98;;;0.80;98.00;;;;;;5013812;28;20026;-70
2020/12/10 12:04:20;;;;;;;21.27;14.43;;;0.80;98.00;;;;;;5018067;28;20312;-70
2020/12/10 12:06:46;;;;;;;18.60;12.63;;;1.00;98.00;;;;;;5007948;28;20072;-70
2020/12/10 12:09:14;;;;;;;16.55;11.50;;;1.10;98.00;;;;;;5001490;28;20378;-70
2020/12/10 12:11:40;;;;;;;19.70;11.70;;;1.20;98.00;;;;;;5019073;28;20022;-70
2020/12/10 12:14:06;;;;;;;21.35;12.07;;;1.30;98.00;;;;;;5018258;28;20088;-70
2020/12/10 12:16:31;;;;;;;19.45;12.55;;;1.20;98.00;;;;;;5017554;28;20030;-70
2020/12/10 12:18:57;;;;;;;19.25;11.98;;;1.20;98.00;;;;;;5016551;28;20068;-70
2020/12/10 12:21:27;;;;;;;21.25;13.73;;;1.20;98.00;;;;;;5019020;28;20571;-70
2020/12/10 12:23:53;;;;;;;19.92;13.30;;;1.20;98.00;;;;;;5018783;28;20025;-70
2020/12/10 12:26:27;;;;;;;19.15;13.02;;;1.20;98.00;;;;;;5018427;28;20030;-71
2020/12/10 12:28:52;;;;;;;19.42;13.20;;;0.90;98.00;;;;;;5017785;28;20022;-71
2020/12/10 12:31:18;;;;;;;20.88;13.98;;;0.80;98.00;;;;;;5016279;28;20045;-70
2020/12/10 12:33:43;;;;;;;19.20;11.73;;;1.00;98.00;;;;;;5018331;28;20049;-70
2020/12/10 12:36:11;;;;;;;17.08;11.73;;;0.90;98.00;;;;;;5018219;28;20053;-70
2020/12/10 12:38:36;;;;;;;18.45;12.30;;;0.90;98.00;;;;;;5018332;28;20041;-70
2020/12/10 12:41:02;;;;;;;23.05;11.85;;;0.90;98.00;;;;;;5018008;28;20026;-71